Indianapolis, Indiana
Traffic Map
Current Weather Conditions
Indianapolis, Indiana
Scattered Clouds
Scattered Clouds
20°
Feels Like: 7°
Wind Chill: Ceiling: Unl
Heat Index: 20° Visibility: 10mi
Dew Point: Wind: 13mph
Humidity: 57% Direction: 300° (WNW)
Pressure: 30.47in Gusts: 0mph
Raw Report DataKIND 052154Z 30011KT 10SM SCT034 M07/M14 A3047 RMK AO2 SLP329 T10671139
Traffic Incident Summary
Active as of:
Severity:
Category:
InformationThere was an issue retrieving the traffic information for this location. Please try a different location or try again shortly.
Advertisements
Track Severe Weather on mobile